createdAt,value
2022-08-25T00:02:39.042Z,21.61
2022-08-25T00:05:42.216Z,21.60
2022-08-25T00:08:47.874Z,21.57
2022-08-25T00:11:51.368Z,21.60
2022-08-25T00:14:55.421Z,21.58
2022-08-25T00:17:58.508Z,21.56
2022-08-25T00:21:01.328Z,21.52
2022-08-25T00:24:06.004Z,21.47
2022-08-25T00:27:09.538Z,21.48
2022-08-25T00:30:15.931Z,21.50
2022-08-25T00:33:19.509Z,21.49
2022-08-25T00:36:22.681Z,21.46
2022-08-25T00:39:28.016Z,21.42
2022-08-25T00:42:31.523Z,21.38
2022-08-25T00:45:35.488Z,21.36
2022-08-25T00:48:42.308Z,21.34
2022-08-25T00:51:51.492Z,21.34
2022-08-25T00:55:04.299Z,21.34
2022-08-25T00:58:17.166Z,21.30
2022-08-25T01:01:20.040Z,21.27
2022-08-25T01:04:23.899Z,21.25
2022-08-25T01:07:26.719Z,21.25
2022-08-25T01:10:32.238Z,21.22
2022-08-25T01:13:38.963Z,21.21
2022-08-25T01:16:43.927Z,21.19
2022-08-25T01:19:46.577Z,21.19
2022-08-25T01:22:54.997Z,21.15
2022-08-25T01:26:04.975Z,21.15
2022-08-25T01:29:22.792Z,21.12
2022-08-25T01:32:26.043Z,21.10
2022-08-25T01:35:28.878Z,21.11
2022-08-25T01:38:32.903Z,21.10
2022-08-25T01:41:47.956Z,21.11
2022-08-25T01:44:54.524Z,21.10
2022-08-25T01:47:57.376Z,21.04
2022-08-25T01:51:00.013Z,21.02
2022-08-25T01:54:04.233Z,21.00
2022-08-25T01:57:06.983Z,20.97
2022-08-25T02:00:13.407Z,20.94
2022-08-25T02:03:18.768Z,20.92
2022-08-25T02:06:29.812Z,20.94
2022-08-25T02:09:34.787Z,20.92
2022-08-25T02:12:37.626Z,20.91
2022-08-25T02:15:43.039Z,20.89
2022-08-25T02:18:46.479Z,20.83
2022-08-25T02:21:49.125Z,20.83
2022-08-25T02:24:55.519Z,20.82
2022-08-25T02:27:58.396Z,20.80
2022-08-25T02:31:01.885Z,20.79
2022-08-25T02:34:05.358Z,20.78
2022-08-25T02:37:09.720Z,20.70
2022-08-25T02:40:14.412Z,20.73
2022-08-25T02:43:17.374Z,20.69
2022-08-25T02:46:21.854Z,20.68
2022-08-25T02:49:25.340Z,20.70
2022-08-25T02:52:28.104Z,20.69
2022-08-25T02:55:33.703Z,20.66
2022-08-25T02:58:38.567Z,20.64
2022-08-25T03:01:41.684Z,20.64
2022-08-25T03:04:45.243Z,20.59
2022-08-25T03:07:48.110Z,20.50
2022-08-25T03:10:52.919Z,20.51
2022-08-25T03:13:56.623Z,20.50
2022-08-25T03:16:59.419Z,20.49
2022-08-25T03:20:02.336Z,20.46
2022-08-25T03:23:06.086Z,20.45
2022-08-25T03:26:33.803Z,20.45
2022-08-25T03:29:36.520Z,20.43
2022-08-25T03:32:40.025Z,20.44
2022-08-25T03:35:42.971Z,20.46
2022-08-25T03:38:46.228Z,20.45
2022-08-25T03:41:51.628Z,20.41
2022-08-25T03:44:54.805Z,20.39
2022-08-25T03:47:57.834Z,20.42
2022-08-25T03:51:00.903Z,20.38
2022-08-25T03:54:05.261Z,20.36
2022-08-25T03:57:09.796Z,20.38
2022-08-25T04:00:13.208Z,20.42
2022-08-25T04:03:16.568Z,20.52
2022-08-25T04:06:20.318Z,20.39
2022-08-25T04:09:23.655Z,20.41
2022-08-25T04:12:27.670Z,20.44
2022-08-25T04:15:30.466Z,20.49
2022-08-25T04:18:34.282Z,20.47
2022-08-25T04:21:37.853Z,20.51
2022-08-25T04:24:40.630Z,20.50
2022-08-25T04:27:44.726Z,20.49
2022-08-25T04:30:51.838Z,20.52
2022-08-25T04:33:55.307Z,20.51
2022-08-25T04:36:58.251Z,20.57
2022-08-25T04:40:01.085Z,20.61
2022-08-25T04:43:05.148Z,20.73
2022-08-25T04:46:11.292Z,20.68
2022-08-25T04:49:14.059Z,20.66
2022-08-25T04:52:17.057Z,20.64
2022-08-25T04:55:20.131Z,20.68
2022-08-25T04:58:24.258Z,20.68
2022-08-25T05:01:27.298Z,20.70
2022-08-25T05:04:31.232Z,20.71
2022-08-25T05:07:33.952Z,20.68
2022-08-25T05:10:41.230Z,20.76
2022-08-25T05:13:51.273Z,20.83
2022-08-25T05:16:55.142Z,20.77
2022-08-25T05:19:58.011Z,20.77
2022-08-25T05:23:00.659Z,20.76
2022-08-25T05:26:05.987Z,20.85
2022-08-25T05:29:10.940Z,20.86
2022-08-25T05:32:13.605Z,20.92
2022-08-25T05:35:16.589Z,21.02
2022-08-25T05:38:20.074Z,21.00
2022-08-25T05:41:28.402Z,21.04
2022-08-25T05:44:32.395Z,21.10
2022-08-25T05:47:35.444Z,21.09
2022-08-25T05:50:38.061Z,21.15
2022-08-25T05:53:43.013Z,21.14
2022-08-25T05:56:46.468Z,21.03
2022-08-25T05:59:50.664Z,20.89
2022-08-25T06:02:52.370Z,21.09
2022-08-25T06:05:55.269Z,21.07
2022-08-25T06:08:58.054Z,21.11
2022-08-25T06:12:00.687Z,21.07
2022-08-25T06:15:06.107Z,21.03
2022-08-25T06:18:08.834Z,21.00
2022-08-25T06:21:13.719Z,21.08
2022-08-25T06:24:16.536Z,21.03
2022-08-25T06:27:19.476Z,21.13
2022-08-25T06:30:28.559Z,21.13
2022-08-25T06:33:32.386Z,21.19
2022-08-25T06:36:35.695Z,21.10
2022-08-25T06:39:38.431Z,21.25
2022-08-25T06:42:41.151Z,21.23
2022-08-25T06:45:45.153Z,21.25
2022-08-25T06:48:48.414Z,21.21
2022-08-25T06:51:51.257Z,21.28
2022-08-25T06:54:54.643Z,21.34
2022-08-25T06:57:57.297Z,21.21
2022-08-25T07:01:13.449Z,21.19
2022-08-25T07:04:18.745Z,21.29
2022-08-25T07:07:21.407Z,21.34
2022-08-25T07:10:24.476Z,21.59
2022-08-25T07:13:27.273Z,21.47
2022-08-25T07:16:34.273Z,21.55
2022-08-25T07:19:37.004Z,21.67
2022-08-25T07:22:40.169Z,21.96
2022-08-25T07:25:42.879Z,21.86
2022-08-25T07:28:47.439Z,21.95
2022-08-25T07:31:51.961Z,21.96
2022-08-25T07:35:12.531Z,22.08
2022-08-25T07:38:19.653Z,21.94
2022-08-25T07:41:23.825Z,22.05
2022-08-25T07:44:27.999Z,22.08
2022-08-25T07:47:32.717Z,22.22
2022-08-25T07:50:36.201Z,22.43
2022-08-25T07:53:40.169Z,22.51
2022-08-25T07:56:43.272Z,22.63
2022-08-25T07:59:46.920Z,22.91
2022-08-25T08:02:51.140Z,23.13
2022-08-25T08:05:56.462Z,23.12
2022-08-25T08:09:00.013Z,23.13
2022-08-25T08:12:02.724Z,23.21
2022-08-25T08:15:10.382Z,23.25
2022-08-25T08:18:15.987Z,23.35
2022-08-25T08:21:21.741Z,23.32
2022-08-25T08:24:40.627Z,23.23
2022-08-25T08:27:47.173Z,23.38
2022-08-25T08:30:53.713Z,23.39
2022-08-25T08:33:58.986Z,23.46
2022-08-25T08:37:02.035Z,23.48
2022-08-25T08:40:07.207Z,23.60
2022-08-25T08:43:18.953Z,23.71
2022-08-25T08:46:25.944Z,23.90
2022-08-25T08:49:38.844Z,23.71
2022-08-25T08:52:46.163Z,23.93
2022-08-25T08:55:56.767Z,24.14
2022-08-25T08:59:06.310Z,24.64
2022-08-25T09:02:22.100Z,24.91
2022-08-25T09:05:48.340Z,25.29
2022-08-25T09:08:51.361Z,25.21
2022-08-25T09:12:09.706Z,25.45
2022-08-25T09:15:20.381Z,25.80
2022-08-25T09:18:30.097Z,25.76
2022-08-25T09:21:41.459Z,25.80
2022-08-25T09:24:58.133Z,25.78
2022-08-25T09:28:08.460Z,25.83
2022-08-25T09:31:18.832Z,25.73
2022-08-25T09:34:25.643Z,25.56
2022-08-25T09:37:29.866Z,25.78
2022-08-25T09:40:35.322Z,25.84
2022-08-25T09:43:42.611Z,25.95
2022-08-25T09:46:57.124Z,26.04
2022-08-25T09:50:05.320Z,25.67
2022-08-25T09:53:17.619Z,25.51
2022-08-25T09:56:24.367Z,25.56
2022-08-25T09:59:35.196Z,25.67
2022-08-25T10:02:38.621Z,25.85
2022-08-25T10:06:02.714Z,25.97
2022-08-25T10:09:09.751Z,26.38
2022-08-25T10:12:18.794Z,27.26
2022-08-25T10:15:30.327Z,27.68
2022-08-25T10:18:33.468Z,27.92
2022-08-25T10:21:38.333Z,27.36
2022-08-25T10:24:44.150Z,26.93
2022-08-25T10:27:54.975Z,26.92
2022-08-25T10:31:09.706Z,27.11
2022-08-25T10:34:26.419Z,27.55
2022-08-25T10:37:38.313Z,28.31
2022-08-25T10:40:49.847Z,29.02
2022-08-25T10:44:03.965Z,28.90
2022-08-25T10:47:34.540Z,28.22
2022-08-25T10:50:45.464Z,28.16
2022-08-25T10:53:58.053Z,27.94
2022-08-25T10:57:13.053Z,28.06
2022-08-25T11:00:19.601Z,27.51
2022-08-25T11:03:38.920Z,27.48
2022-08-25T11:06:52.708Z,27.76
2022-08-25T11:10:04.087Z,27.42
2022-08-25T11:13:15.734Z,27.62
2022-08-25T11:16:23.237Z,27.48
2022-08-25T11:19:32.782Z,28.04
2022-08-25T11:22:43.642Z,28.06
2022-08-25T11:25:50.525Z,28.05
2022-08-25T11:29:02.543Z,28.07
2022-08-25T11:32:06.293Z,27.87
2022-08-25T11:35:13.076Z,28.21
2022-08-25T11:38:29.964Z,28.52
2022-08-25T11:41:41.699Z,28.87
2022-08-25T11:44:56.079Z,29.24
2022-08-25T11:48:11.645Z,29.33
2022-08-25T11:51:33.802Z,29.74
2022-08-25T11:54:44.379Z,30.13
2022-08-25T11:57:53.587Z,30.35
2022-08-25T12:01:00.140Z,30.50
2022-08-25T12:04:14.850Z,30.81
2022-08-25T12:07:25.035Z,30.34
2022-08-25T12:10:55.945Z,29.87
2022-08-25T12:14:16.194Z,29.26
2022-08-25T12:17:39.621Z,29.77
2022-08-25T12:21:30.744Z,29.56
2022-08-25T12:24:51.618Z,29.44
2022-08-25T12:28:04.896Z,30.26
2022-08-25T12:31:23.142Z,30.09
2022-08-25T12:34:51.411Z,30.21
2022-08-25T12:37:56.973Z,29.71
2022-08-25T12:41:04.686Z,30.32
2022-08-25T12:44:21.022Z,30.05
2022-08-25T12:47:32.430Z,30.05
2022-08-25T12:50:43.250Z,30.02
2022-08-25T12:53:49.450Z,29.48
2022-08-25T12:56:56.184Z,29.75
2022-08-25T13:00:05.664Z,29.43
2022-08-25T13:07:03.028Z,29.94
2022-08-25T13:10:21.472Z,30.51
2022-08-25T13:13:40.671Z,30.77
2022-08-25T13:16:54.442Z,30.47
2022-08-25T13:20:18.153Z,30.06
2022-08-25T13:23:29.207Z,29.49
2022-08-25T13:26:34.871Z,29.12
2022-08-25T13:29:51.562Z,29.49
2022-08-25T13:32:55.768Z,29.82
2022-08-25T13:36:17.574Z,30.06
2022-08-25T13:39:45.526Z,29.86
2022-08-25T13:42:55.583Z,29.85
2022-08-25T13:45:58.879Z,29.78
2022-08-25T13:49:08.765Z,29.90
2022-08-25T13:52:19.239Z,29.98
2022-08-25T13:55:51.507Z,30.33
2022-08-25T13:58:56.426Z,30.29
2022-08-25T14:02:00.173Z,30.26
2022-08-25T14:05:03.578Z,29.74
2022-08-25T14:08:31.767Z,29.51
2022-08-25T14:11:44.900Z,29.15
2022-08-25T14:14:59.656Z,28.92
2022-08-25T14:18:07.275Z,28.99
2022-08-25T14:21:12.019Z,28.99
2022-08-25T14:24:18.030Z,29.11
2022-08-25T14:27:26.596Z,29.12
2022-08-25T14:30:29.695Z,29.12
2022-08-25T14:33:38.533Z,29.19
2022-08-25T14:36:41.384Z,29.31
2022-08-25T14:39:48.093Z,29.47
2022-08-25T14:42:52.154Z,29.54
2022-08-25T14:45:54.833Z,29.59
2022-08-25T14:49:00.478Z,29.24
2022-08-25T14:52:09.813Z,29.19
2022-08-25T14:55:13.852Z,29.13
2022-08-25T14:58:34.995Z,29.08
2022-08-25T15:01:51.626Z,29.43
2022-08-25T15:04:57.634Z,29.35
2022-08-25T15:08:18.418Z,29.46
2022-08-25T15:11:21.542Z,29.27
2022-08-25T15:14:29.088Z,29.38
2022-08-25T15:17:36.115Z,29.21
2022-08-25T15:20:39.905Z,29.15
2022-08-25T15:23:44.576Z,29.06
2022-08-25T15:30:00.852Z,28.93
2022-08-25T15:33:03.847Z,29.02
2022-08-25T15:36:11.208Z,28.85
2022-08-25T15:39:19.103Z,28.81
2022-08-25T15:42:22.676Z,28.81
2022-08-25T15:45:29.055Z,28.77
2022-08-25T15:48:33.789Z,28.82
2022-08-25T15:51:37.223Z,28.76
2022-08-25T15:54:40.705Z,28.62
2022-08-25T15:57:44.674Z,28.57
2022-08-25T16:00:56.267Z,28.60
2022-08-25T16:04:00.006Z,28.59
2022-08-25T16:07:02.604Z,28.78
2022-08-25T16:10:07.424Z,28.54
2022-08-25T16:13:11.377Z,28.72
2022-08-25T16:16:16.228Z,28.36
2022-08-25T16:19:18.959Z,28.24
2022-08-25T16:22:21.750Z,28.19
2022-08-25T16:25:25.472Z,28.36
2022-08-25T16:28:28.487Z,28.29
2022-08-25T16:31:32.687Z,28.18
2022-08-25T16:34:35.946Z,28.20
2022-08-25T16:37:38.649Z,28.07
2022-08-25T16:40:43.812Z,28.01
2022-08-25T16:43:47.818Z,28.02
2022-08-25T16:46:54.309Z,27.91
2022-08-25T16:49:57.349Z,27.86
2022-08-25T16:53:29.899Z,27.71
2022-08-25T16:56:35.279Z,27.79
2022-08-25T16:59:39.777Z,27.76
2022-08-25T17:02:44.483Z,27.65
2022-08-25T17:05:48.708Z,27.66
2022-08-25T17:08:52.896Z,27.74
2022-08-25T17:11:57.128Z,27.55
2022-08-25T17:14:59.981Z,27.43
2022-08-25T17:18:04.029Z,27.40
2022-08-25T17:21:09.815Z,27.39
2022-08-25T17:24:15.218Z,27.37
2022-08-25T17:27:18.659Z,27.25
2022-08-25T17:30:21.622Z,27.32
2022-08-25T17:33:25.772Z,27.19
2022-08-25T17:36:31.328Z,27.04
2022-08-25T17:39:34.767Z,27.06
2022-08-25T17:42:37.508Z,26.93
2022-08-25T17:45:40.821Z,26.86
2022-08-25T17:48:45.569Z,26.93
2022-08-25T17:51:48.375Z,26.77
2022-08-25T17:54:52.593Z,26.83
2022-08-25T17:57:55.927Z,26.54
2022-08-25T18:00:59.510Z,26.49
2022-08-25T18:04:06.382Z,26.38
2022-08-25T18:07:19.795Z,26.31
2022-08-25T18:10:22.826Z,26.25
2022-08-25T18:13:26.693Z,26.16
2022-08-25T18:16:31.296Z,26.07
2022-08-25T18:19:35.339Z,25.99
2022-08-25T18:22:41.659Z,25.98
2022-08-25T18:25:48.811Z,25.86
2022-08-25T18:28:51.628Z,25.79
2022-08-25T18:31:59.680Z,25.71
2022-08-25T18:35:06.266Z,25.73
2022-08-25T18:38:27.322Z,25.67
2022-08-25T18:41:36.975Z,25.58
2022-08-25T18:44:43.768Z,25.52
2022-08-25T18:47:53.178Z,25.41
2022-08-25T18:50:58.072Z,25.35
2022-08-25T18:54:02.353Z,25.31
2022-08-25T18:57:08.337Z,25.27
2022-08-25T19:00:15.814Z,25.21
2022-08-25T19:03:21.834Z,25.22
2022-08-25T19:06:25.858Z,25.18
2022-08-25T19:09:28.800Z,25.10
2022-08-25T19:12:33.864Z,25.09
2022-08-25T19:15:42.348Z,25.03
2022-08-25T19:18:46.166Z,24.97
2022-08-25T19:21:50.857Z,24.91
2022-08-25T19:24:53.893Z,24.90
2022-08-25T19:27:58.459Z,24.84
2022-08-25T19:31:04.305Z,24.80
2022-08-25T19:34:08.530Z,24.77
2022-08-25T19:37:14.196Z,24.74
2022-08-25T19:40:19.579Z,24.67
2022-08-25T19:43:22.943Z,24.59
2022-08-25T19:46:33.019Z,24.49
2022-08-25T19:49:38.423Z,24.46
2022-08-25T19:52:45.105Z,24.40
2022-08-25T19:55:48.619Z,24.32
2022-08-25T19:58:51.743Z,24.31
2022-08-25T20:01:54.603Z,24.22
2022-08-25T20:04:59.958Z,24.22
2022-08-25T20:08:05.631Z,24.19
2022-08-25T20:11:08.404Z,24.11
2022-08-25T20:14:12.176Z,24.05
2022-08-25T20:17:24.190Z,24.00
2022-08-25T20:20:32.373Z,24.00
2022-08-25T20:23:55.922Z,23.90
2022-08-25T20:26:59.126Z,23.86
2022-08-25T20:30:03.258Z,23.83
2022-08-25T20:33:08.149Z,23.73
2022-08-25T20:36:15.050Z,23.72
2022-08-25T20:39:20.332Z,23.67
2022-08-25T20:42:22.991Z,23.62
2022-08-25T20:45:26.036Z,23.57
2022-08-25T20:48:29.256Z,23.54
2022-08-25T20:51:32.200Z,23.51
2022-08-25T20:54:36.977Z,23.46
2022-08-25T20:57:39.789Z,23.40
2022-08-25T21:00:42.919Z,23.35
2022-08-25T21:03:45.602Z,23.24
2022-08-25T21:06:51.414Z,23.18
2022-08-25T21:09:55.632Z,23.16
2022-08-25T21:12:58.597Z,23.14
2022-08-25T21:16:03.665Z,23.10
2022-08-25T21:19:11.068Z,23.02
2022-08-25T21:22:13.832Z,22.97
2022-08-25T21:25:18.925Z,22.88
2022-08-25T21:28:21.719Z,22.81
2022-08-25T21:31:24.637Z,22.73
2022-08-25T21:34:28.883Z,22.71
2022-08-25T21:37:32.071Z,22.64
2022-08-25T21:40:37.424Z,22.61
2022-08-25T21:43:40.226Z,22.66
2022-08-25T21:46:53.816Z,22.67
2022-08-25T21:49:57.742Z,22.66
2022-08-25T21:53:00.444Z,22.64
2022-08-25T21:56:06.194Z,22.61
2022-08-25T21:59:10.829Z,22.58
2022-08-25T22:02:19.172Z,22.56
2022-08-25T22:05:24.506Z,22.52
2022-08-25T22:08:30.610Z,22.50
2022-08-25T22:11:36.097Z,22.48
2022-08-25T22:14:39.520Z,22.47
2022-08-25T22:17:42.734Z,22.46
2022-08-25T22:20:45.570Z,22.44
2022-08-25T22:23:48.373Z,22.35
2022-08-25T22:26:52.418Z,22.29
2022-08-25T22:29:57.088Z,22.34
2022-08-25T22:33:00.015Z,22.27
2022-08-25T22:36:03.129Z,22.28
2022-08-25T22:39:07.785Z,22.25
2022-08-25T22:42:12.194Z,22.22
2022-08-25T22:45:14.834Z,22.17
2022-08-25T22:48:20.819Z,22.18
2022-08-25T22:51:25.588Z,22.17
2022-08-25T22:54:28.767Z,22.20
2022-08-25T22:57:35.366Z,22.20
2022-08-25T23:00:40.088Z,22.19
2022-08-25T23:03:44.422Z,22.17
2022-08-25T23:06:47.455Z,22.17
2022-08-25T23:09:50.120Z,22.16
2022-08-25T23:12:54.313Z,22.14
2022-08-25T23:15:57.005Z,22.14
2022-08-25T23:19:00.388Z,22.12
2022-08-25T23:22:12.644Z,22.12
2022-08-25T23:25:17.038Z,22.12
2022-08-25T23:28:22.599Z,22.10
2022-08-25T23:31:25.283Z,22.08
2022-08-25T23:34:28.760Z,22.05
2022-08-25T23:37:31.418Z,22.02
2022-08-25T23:40:35.087Z,21.99
2022-08-25T23:43:40.428Z,21.97
2022-08-25T23:46:44.564Z,21.92
2022-08-25T23:49:48.088Z,21.88
2022-08-25T23:52:51.204Z,21.86
2022-08-25T23:55:54.635Z,21.81
2022-08-25T23:58:59.709Z,21.79
